This is the latest recevied weather packets stored in our database for station/object E25DQY-1. If no packets are shown the sender has not sent any weather packets the latest 10 day(s).
| Time | Temp. | Humidity | Pressure | Rain* | Wind** | Luminosity | Snow |
|---|---|---|---|---|---|---|---|
| 1778151261 | 26.67° C | 57% | 1003 hPa | - | - | 0 W/m² | - |
| 1778149426 | 26.67° C | 54% | 1002 hPa | - | - | 0 W/m² | - |
| 1778147603 | 26.67° C | 54% | 1002 hPa | - | - | 0 W/m² | - |
| 1778145780 | 26.67° C | 55% | 1002 hPa | - | - | 0 W/m² | - |
| 1778143958 | 27.22° C | 55% | 1002 hPa | - | - | 0 W/m² | - |
| 1778142134 | 27.22° C | 55% | 1002 hPa | - | - | 0 W/m² | - |
| 1778140312 | 26.67° C | 56% | 1002 hPa | - | - | 0 W/m² | - |
| 1778138489 | 26.67° C | 57% | 1002 hPa | - | - | 0 W/m² | - |
| 1778136666 | 26.67° C | 55% | 1003 hPa | - | - | 0 W/m² | - |
| 1778134843 | 26.67° C | 55% | 1004 hPa | - | - | 0 W/m² | - |
| 1778133020 | 26.67° C | 52% | 1005 hPa | - | - | 0 W/m² | - |
| 1778131196 | 27.22° C | 47% | 1006 hPa | - | - | 0 W/m² | - |
| 1778129373 | 27.78° C | 44% | 1005 hPa | - | - | 0 W/m² | - |
| 1778127551 | 29.44° C | 37% | 1005 hPa | - | - | 0 W/m² | - |
| 1778125730 | 29.44° C | 38% | 1005 hPa | - | - | 0 W/m² | - |
| 1778123907 | 28.89° C | 38% | 1005 hPa | - | - | 0 W/m² | - |
| 1778122083 | 28.33° C | 40% | 1006 hPa | - | - | 0 W/m² | - |
| 1778120261 | 27.78° C | 42% | 1006 hPa | - | - | 0 W/m² | - |
| 1778118437 | 28.89° C | 42% | 1006 hPa | - | - | 0 W/m² | - |
| 1778116614 | 27.78° C | 44% | 1005 hPa | - | - | 0 W/m² | - |
| 1778114791 | 27.22° C | 52% | 1005 hPa | - | - | 0 W/m² | - |
| 1778112969 | 26.67° C | 56% | 1005 hPa | - | - | 0 W/m² | - |
| 1778111147 | 26.67° C | 60% | 1005 hPa | - | - | 0 W/m² | - |
| 1778109325 | 26.67° C | 63% | 1004 hPa | - | - | 0 W/m² | - |
| 1778107503 | 26.11° C | 61% | 1004 hPa | - | - | 0 W/m² | - |
* Rain since midnight (hover to see other rain measurements)
** Current wind speed in m/s (hover to see current wind gust speed)